sensor_id;sensor_type;location;lat;lon;timestamp;P1;durP1;ratioP1;P2;durP2;ratioP2
45970;SDS011;31681;48.982;8.394;2023-08-01T00:01:34;7.07;;;4.28;;
45970;SDS011;31681;48.982;8.394;2023-08-01T00:03:59;6.10;;;4.55;;
45970;SDS011;31681;48.982;8.394;2023-08-01T00:06:25;8.48;;;4.30;;
45970;SDS011;31681;48.982;8.394;2023-08-01T00:08:53;8.52;;;4.50;;
45970;SDS011;31681;48.982;8.394;2023-08-01T00:11:18;7.75;;;4.88;;
45970;SDS011;31681;48.982;8.394;2023-08-01T00:13:43;10.15;;;5.10;;
45970;SDS011;31681;48.982;8.394;2023-08-01T00:16:09;10.77;;;4.60;;
45970;SDS011;31681;48.982;8.394;2023-08-01T00:18:34;6.97;;;4.80;;
45970;SDS011;31681;48.982;8.394;2023-08-01T00:23:46;9.48;;;5.03;;
45970;SDS011;31681;48.982;8.394;2023-08-01T00:26:11;9.65;;;5.40;;
45970;SDS011;31681;48.982;8.394;2023-08-01T00:28:36;9.60;;;5.38;;
45970;SDS011;31681;48.982;8.394;2023-08-01T00:31:03;9.68;;;5.55;;
45970;SDS011;31681;48.982;8.394;2023-08-01T00:33:28;10.95;;;5.55;;
45970;SDS011;31681;48.982;8.394;2023-08-01T04:19:51;8.25;;;5.20;;
45970;SDS011;31681;48.982;8.394;2023-08-01T04:22:17;8.95;;;4.90;;
45970;SDS011;31681;48.982;8.394;2023-08-01T04:24:42;7.05;;;4.15;;
45970;SDS011;31681;48.982;8.394;2023-08-01T04:27:07;9.65;;;4.47;;
45970;SDS011;31681;48.982;8.394;2023-08-01T04:29:33;6.55;;;4.15;;
45970;SDS011;31681;48.982;8.394;2023-08-01T04:31:58;9.43;;;4.28;;
45970;SDS011;31681;48.982;8.394;2023-08-01T04:34:23;7.95;;;4.32;;
45970;SDS011;31681;48.982;8.394;2023-08-01T04:36:48;9.43;;;4.53;;
45970;SDS011;31681;48.982;8.394;2023-08-01T04:39:14;9.23;;;4.05;;
45970;SDS011;31681;48.982;8.394;2023-08-01T04:41:39;8.18;;;4.05;;
45970;SDS011;31681;48.982;8.394;2023-08-01T04:44:04;9.80;;;4.22;;
45970;SDS011;31681;48.982;8.394;2023-08-01T04:46:30;6.88;;;3.90;;
45970;SDS011;31681;48.982;8.394;2023-08-01T04:48:55;7.22;;;4.10;;
45970;SDS011;31681;48.982;8.394;2023-08-01T04:51:20;13.07;;;4.70;;
45970;SDS011;31681;48.982;8.394;2023-08-01T04:53:45;7.43;;;4.10;;
45970;SDS011;31681;48.982;8.394;2023-08-01T04:59:14;7.93;;;4.20;;
45970;SDS011;31681;48.982;8.394;2023-08-01T05:01:39;7.30;;;4.30;;
45970;SDS011;31681;48.982;8.394;2023-08-01T05:04:05;7.22;;;3.75;;
45970;SDS011;31681;48.982;8.394;2023-08-01T05:06:30;7.63;;;4.25;;
45970;SDS011;31681;48.982;8.394;2023-08-01T05:08:55;7.82;;;3.90;;
45970;SDS011;31681;48.982;8.394;2023-08-01T05:11:21;5.65;;;3.55;;
45970;SDS011;31681;48.982;8.394;2023-08-01T05:13:46;9.55;;;4.00;;
45970;SDS011;31681;48.982;8.394;2023-08-01T05:16:11;8.77;;;4.38;;
45970;SDS011;31681;48.982;8.394;2023-08-01T05:18:37;8.50;;;4.30;;
45970;SDS011;31681;48.982;8.394;2023-08-01T05:21:02;10.35;;;4.28;;
45970;SDS011;31681;48.982;8.394;2023-08-01T05:23:27;7.32;;;3.95;;
45970;SDS011;31681;48.982;8.394;2023-08-01T05:28:38;7.57;;;4.30;;
45970;SDS011;31681;48.982;8.394;2023-08-01T05:31:05;6.25;;;4.00;;
45970;SDS011;31681;48.982;8.394;2023-08-01T05:33:30;8.38;;;4.10;;
45970;SDS011;31681;48.982;8.394;2023-08-01T05:35:56;7.43;;;4.20;;
45970;SDS011;31681;48.982;8.394;2023-08-01T05:38:22;9.25;;;4.70;;
45970;SDS011;31681;48.982;8.394;2023-08-01T05:40:47;9.63;;;4.45;;
45970;SDS011;31681;48.982;8.394;2023-08-01T05:43:12;11.38;;;5.15;;
45970;SDS011;31681;48.982;8.394;2023-08-01T05:45:38;9.15;;;4.30;;
45970;SDS011;31681;48.982;8.394;2023-08-01T05:48:03;8.13;;;4.50;;
45970;SDS011;31681;48.982;8.394;2023-08-01T05:50:28;9.10;;;4.43;;
45970;SDS011;31681;48.982;8.394;2023-08-01T05:52:54;11.50;;;5.00;;
45970;SDS011;31681;48.982;8.394;2023-08-01T05:55:19;8.93;;;5.20;;
45970;SDS011;31681;48.982;8.394;2023-08-01T05:57:45;8.60;;;4.93;;
45970;SDS011;31681;48.982;8.394;2023-08-01T06:00:10;9.20;;;5.38;;
45970;SDS011;31681;48.982;8.394;2023-08-01T06:02:38;9.98;;;4.85;;
45970;SDS011;31681;48.982;8.394;2023-08-01T06:05:04;9.93;;;5.13;;
45970;SDS011;31681;48.982;8.394;2023-08-01T06:07:29;9.35;;;5.45;;
45970;SDS011;31681;48.982;8.394;2023-08-01T06:09:55;8.65;;;4.75;;
45970;SDS011;31681;48.982;8.394;2023-08-01T06:12:20;8.98;;;5.45;;
45970;SDS011;31681;48.982;8.394;2023-08-01T06:14:46;9.15;;;5.50;;
45970;SDS011;31681;48.982;8.394;2023-08-01T06:17:11;8.50;;;5.28;;
45970;SDS011;31681;48.982;8.394;2023-08-01T06:19:36;9.45;;;5.22;;
45970;SDS011;31681;48.982;8.394;2023-08-01T06:22:02;11.18;;;5.90;;
45970;SDS011;31681;48.982;8.394;2023-08-01T06:24:27;9.30;;;5.75;;
45970;SDS011;31681;48.982;8.394;2023-08-01T06:26:52;12.30;;;6.07;;
45970;SDS011;31681;48.982;8.394;2023-08-01T06:29:17;11.80;;;5.88;;
45970;SDS011;31681;48.982;8.394;2023-08-01T06:31:43;9.50;;;5.88;;
45970;SDS011;31681;48.982;8.394;2023-08-01T06:34:08;9.02;;;6.05;;
45970;SDS011;31681;48.982;8.394;2023-08-01T06:36:33;10.27;;;5.68;;
45970;SDS011;31681;48.982;8.394;2023-08-01T06:39:00;11.57;;;6.22;;
45970;SDS011;31681;48.982;8.394;2023-08-01T06:41:25;12.20;;;6.25;;
45970;SDS011;31681;48.982;8.394;2023-08-01T06:43:51;9.88;;;6.50;;
45970;SDS011;31681;48.982;8.394;2023-08-01T06:46:16;11.43;;;6.07;;
45970;SDS011;31681;48.982;8.394;2023-08-01T06:48:41;9.88;;;5.82;;
45970;SDS011;31681;48.982;8.394;2023-08-01T06:51:06;11.60;;;6.20;;
45970;SDS011;31681;48.982;8.394;2023-08-01T06:53:33;11.90;;;6.10;;
45970;SDS011;31681;48.982;8.394;2023-08-01T06:55:58;13.02;;;6.20;;
45970;SDS011;31681;48.982;8.394;2023-08-01T06:58:23;12.65;;;5.60;;
45970;SDS011;31681;48.982;8.394;2023-08-01T07:00:49;10.88;;;6.30;;
45970;SDS011;31681;48.982;8.394;2023-08-01T07:03:14;10.82;;;5.93;;
45970;SDS011;31681;48.982;8.394;2023-08-01T07:05:39;10.15;;;6.30;;
45970;SDS011;31681;48.982;8.394;2023-08-01T07:08:05;11.05;;;5.40;;
45970;SDS011;31681;48.982;8.394;2023-08-01T07:10:33;8.25;;;5.55;;
45970;SDS011;31681;48.982;8.394;2023-08-01T07:12:59;11.70;;;5.50;;
45970;SDS011;31681;48.982;8.394;2023-08-01T07:15:24;9.00;;;5.28;;
45970;SDS011;31681;48.982;8.394;2023-08-01T07:17:49;10.70;;;5.38;;
45970;SDS011;31681;48.982;8.394;2023-08-01T07:20:14;8.07;;;4.75;;
45970;SDS011;31681;48.982;8.394;2023-08-01T07:22:40;7.95;;;4.70;;
45970;SDS011;31681;48.982;8.394;2023-08-01T07:25:05;8.60;;;4.75;;
45970;SDS011;31681;48.982;8.394;2023-08-01T07:27:31;9.30;;;5.28;;
45970;SDS011;31681;48.982;8.394;2023-08-01T07:29:56;9.52;;;4.97;;
45970;SDS011;31681;48.982;8.394;2023-08-01T07:32:21;8.05;;;4.78;;
45970;SDS011;31681;48.982;8.394;2023-08-01T07:34:46;13.35;;;5.88;;
45970;SDS011;31681;48.982;8.394;2023-08-01T07:37:12;7.50;;;5.15;;
45970;SDS011;31681;48.982;8.394;2023-08-01T07:39:37;9.25;;;4.75;;
45970;SDS011;31681;48.982;8.394;2023-08-01T07:42:02;9.05;;;4.85;;
45970;SDS011;31681;48.982;8.394;2023-08-01T07:44:28;9.48;;;4.75;;
45970;SDS011;31681;48.982;8.394;2023-08-01T07:46:54;8.02;;;5.18;;
45970;SDS011;31681;48.982;8.394;2023-08-01T07:49:19;7.47;;;4.72;;
45970;SDS011;31681;48.982;8.394;2023-08-01T07:51:45;11.55;;;5.10;;
45970;SDS011;31681;48.982;8.394;2023-08-01T07:54:10;9.35;;;5.00;;
45970;SDS011;31681;48.982;8.394;2023-08-01T07:56:35;8.57;;;4.47;;
45970;SDS011;31681;48.982;8.394;2023-08-01T07:59:01;8.00;;;4.75;;
45970;SDS011;31681;48.982;8.394;2023-08-01T08:01:26;8.27;;;4.18;;
45970;SDS011;31681;48.982;8.394;2023-08-01T08:03:51;9.10;;;4.20;;
45970;SDS011;31681;48.982;8.394;2023-08-01T08:06:17;7.95;;;4.40;;
45970;SDS011;31681;48.982;8.394;2023-08-01T08:08:42;6.97;;;4.72;;
45970;SDS011;31681;48.982;8.394;2023-08-01T08:11:07;6.82;;;4.85;;
45970;SDS011;31681;48.982;8.394;2023-08-01T08:13:33;7.53;;;4.28;;
45970;SDS011;31681;48.982;8.394;2023-08-01T08:15:58;7.93;;;4.45;;
45970;SDS011;31681;48.982;8.394;2023-08-01T08:18:23;9.07;;;5.28;;
45970;SDS011;31681;48.982;8.394;2023-08-01T08:20:49;7.40;;;4.57;;
45970;SDS011;31681;48.982;8.394;2023-08-01T08:23:14;9.05;;;4.30;;
45970;SDS011;31681;48.982;8.394;2023-08-01T08:25:40;8.00;;;4.50;;
45970;SDS011;31681;48.982;8.394;2023-08-01T08:28:06;7.85;;;4.38;;
45970;SDS011;31681;48.982;8.394;2023-08-01T08:30:31;8.18;;;4.60;;
45970;SDS011;31681;48.982;8.394;2023-08-01T08:32:57;7.72;;;4.70;;
45970;SDS011;31681;48.982;8.394;2023-08-01T08:35:22;7.78;;;5.05;;
45970;SDS011;31681;48.982;8.394;2023-08-01T08:37:48;7.38;;;4.35;;
45970;SDS011;31681;48.982;8.394;2023-08-01T08:40:13;7.25;;;4.00;;
45970;SDS011;31681;48.982;8.394;2023-08-01T08:42:39;4.75;;;4.03;;
45970;SDS011;31681;48.982;8.394;2023-08-01T08:45:04;9.07;;;4.25;;
45970;SDS011;31681;48.982;8.394;2023-08-01T08:47:31;5.63;;;3.80;;
45970;SDS011;31681;48.982;8.394;2023-08-01T08:49:56;3.72;;;3.00;;
45970;SDS011;31681;48.982;8.394;2023-08-01T08:52:25;5.38;;;3.38;;
45970;SDS011;31681;48.982;8.394;2023-08-01T08:54:50;6.00;;;3.20;;
45970;SDS011;31681;48.982;8.394;2023-08-01T08:57:16;3.40;;;2.25;;
45970;SDS011;31681;48.982;8.394;2023-08-01T08:59:42;5.10;;;2.53;;
45970;SDS011;31681;48.982;8.394;2023-08-01T09:02:08;2.67;;;1.90;;
45970;SDS011;31681;48.982;8.394;2023-08-01T09:04:34;4.57;;;2.25;;
45970;SDS011;31681;48.982;8.394;2023-08-01T09:07:01;3.90;;;2.40;;
45970;SDS011;31681;48.982;8.394;2023-08-01T09:09:27;3.55;;;1.92;;
45970;SDS011;31681;48.982;8.394;2023-08-01T09:11:53;1.83;;;1.63;;
45970;SDS011;31681;48.982;8.394;2023-08-01T09:14:21;2.60;;;1.75;;
45970;SDS011;31681;48.982;8.394;2023-08-01T09:16:46;3.72;;;1.30;;
45970;SDS011;31681;48.982;8.394;2023-08-01T09:19:18;1.92;;;1.10;;
45970;SDS011;31681;48.982;8.394;2023-08-01T09:21:44;1.20;;;1.08;;
45970;SDS011;31681;48.982;8.394;2023-08-01T09:24:09;1.95;;;1.00;;
45970;SDS011;31681;48.982;8.394;2023-08-01T09:26:35;3.05;;;1.02;;
45970;SDS011;31681;48.982;8.394;2023-08-01T09:29:00;1.85;;;1.02;;
45970;SDS011;31681;48.982;8.394;2023-08-01T09:31:30;1.45;;;0.93;;
45970;SDS011;31681;48.982;8.394;2023-08-01T09:33:55;1.45;;;1.20;;
45970;SDS011;31681;48.982;8.394;2023-08-01T09:36:21;2.17;;;1.30;;
45970;SDS011;31681;48.982;8.394;2023-08-01T09:38:47;2.13;;;1.10;;
45970;SDS011;31681;48.982;8.394;2023-08-01T09:41:19;3.00;;;1.23;;
45970;SDS011;31681;48.982;8.394;2023-08-01T09:43:47;2.70;;;1.00;;
45970;SDS011;31681;48.982;8.394;2023-08-01T09:46:14;1.75;;;1.10;;
45970;SDS011;31681;48.982;8.394;2023-08-01T09:48:40;1.45;;;1.00;;
45970;SDS011;31681;48.982;8.394;2023-08-01T09:51:10;1.33;;;1.23;;
45970;SDS011;31681;48.982;8.394;2023-08-01T09:53:36;2.35;;;1.15;;
45970;SDS011;31681;48.982;8.394;2023-08-01T09:56:11;2.35;;;1.10;;
45970;SDS011;31681;48.982;8.394;2023-08-01T09:58:36;2.65;;;1.20;;
45970;SDS011;31681;48.982;8.394;2023-08-01T10:01:02;1.60;;;1.00;;
45970;SDS011;31681;48.982;8.394;2023-08-01T10:03:28;2.45;;;1.02;;
45970;SDS011;31681;48.982;8.394;2023-08-01T10:05:54;1.75;;;0.82;;
45970;SDS011;31681;48.982;8.394;2023-08-01T10:08:20;1.50;;;1.00;;
45970;SDS011;31681;48.982;8.394;2023-08-01T10:10:46;1.52;;;0.90;;
45970;SDS011;31681;48.982;8.394;2023-08-01T10:13:12;1.13;;;0.90;;
45970;SDS011;31681;48.982;8.394;2023-08-01T10:15:38;1.50;;;0.98;;
45970;SDS011;31681;48.982;8.394;2023-08-01T10:18:04;1.77;;;1.10;;
45970;SDS011;31681;48.982;8.394;2023-08-01T10:20:29;0.98;;;0.80;;
45970;SDS011;31681;48.982;8.394;2023-08-01T10:22:55;2.88;;;1.10;;
45970;SDS011;31681;48.982;8.394;2023-08-01T10:25:21;1.73;;;1.15;;
45970;SDS011;31681;48.982;8.394;2023-08-01T10:27:57;1.00;;;0.90;;
45970;SDS011;31681;48.982;8.394;2023-08-01T10:30:25;2.33;;;0.95;;
45970;SDS011;31681;48.982;8.394;2023-08-01T10:32:54;2.40;;;1.00;;
45970;SDS011;31681;48.982;8.394;2023-08-01T10:35:19;1.75;;;1.08;;
45970;SDS011;31681;48.982;8.394;2023-08-01T10:37:45;0.80;;;0.80;;
45970;SDS011;31681;48.982;8.394;2023-08-01T10:40:12;1.05;;;0.90;;
45970;SDS011;31681;48.982;8.394;2023-08-01T10:42:38;1.45;;;1.05;;
45970;SDS011;31681;48.982;8.394;2023-08-01T10:45:04;1.70;;;1.00;;
45970;SDS011;31681;48.982;8.394;2023-08-01T10:47:29;1.40;;;0.90;;
45970;SDS011;31681;48.982;8.394;2023-08-01T10:49:56;1.85;;;1.05;;
45970;SDS011;31681;48.982;8.394;2023-08-01T10:52:23;2.00;;;1.10;;
45970;SDS011;31681;48.982;8.394;2023-08-01T10:54:59;2.45;;;1.23;;
45970;SDS011;31681;48.982;8.394;2023-08-01T10:57:24;3.00;;;1.00;;
45970;SDS011;31681;48.982;8.394;2023-08-01T10:59:50;1.88;;;1.10;;
45970;SDS011;31681;48.982;8.394;2023-08-01T11:02:28;2.90;;;1.27;;
45970;SDS011;31681;48.982;8.394;2023-08-01T11:05:00;1.98;;;1.23;;
45970;SDS011;31681;48.982;8.394;2023-08-01T11:07:26;4.45;;;1.35;;
45970;SDS011;31681;48.982;8.394;2023-08-01T11:10:07;2.17;;;1.20;;
45970;SDS011;31681;48.982;8.394;2023-08-01T11:12:36;2.05;;;1.40;;
45970;SDS011;31681;48.982;8.394;2023-08-01T11:15:02;1.45;;;1.25;;
45970;SDS011;31681;48.982;8.394;2023-08-01T11:17:28;1.65;;;1.30;;
45970;SDS011;31681;48.982;8.394;2023-08-01T11:20:04;2.13;;;1.10;;
45970;SDS011;31681;48.982;8.394;2023-08-01T11:22:29;2.88;;;1.30;;
45970;SDS011;31681;48.982;8.394;2023-08-01T11:24:55;2.00;;;1.20;;
45970;SDS011;31681;48.982;8.394;2023-08-01T11:27:20;1.95;;;1.33;;
45970;SDS011;31681;48.982;8.394;2023-08-01T11:29:45;2.38;;;1.45;;
45970;SDS011;31681;48.982;8.394;2023-08-01T11:32:11;2.72;;;1.23;;
45970;SDS011;31681;48.982;8.394;2023-08-01T11:34:40;1.40;;;1.30;;
45970;SDS011;31681;48.982;8.394;2023-08-01T11:37:08;2.83;;;1.67;;
45970;SDS011;31681;48.982;8.394;2023-08-01T11:39:33;2.30;;;1.45;;
45970;SDS011;31681;48.982;8.394;2023-08-01T11:41:59;2.05;;;1.20;;
45970;SDS011;31681;48.982;8.394;2023-08-01T11:44:25;2.40;;;1.20;;
45970;SDS011;31681;48.982;8.394;2023-08-01T11:46:51;1.65;;;1.27;;
45970;SDS011;31681;48.982;8.394;2023-08-01T11:49:16;2.42;;;1.30;;
45970;SDS011;31681;48.982;8.394;2023-08-01T11:51:43;1.65;;;1.27;;
45970;SDS011;31681;48.982;8.394;2023-08-01T11:54:09;2.00;;;1.10;;
45970;SDS011;31681;48.982;8.394;2023-08-01T11:56:36;2.10;;;1.13;;
45970;SDS011;31681;48.982;8.394;2023-08-01T11:59:07;2.85;;;1.40;;
45970;SDS011;31681;48.982;8.394;2023-08-01T12:01:37;4.07;;;1.50;;
45970;SDS011;31681;48.982;8.394;2023-08-01T12:04:02;2.75;;;1.90;;
45970;SDS011;31681;48.982;8.394;2023-08-01T12:06:30;4.28;;;1.55;;
45970;SDS011;31681;48.982;8.394;2023-08-01T12:09:05;4.70;;;2.28;;
45970;SDS011;31681;48.982;8.394;2023-08-01T12:11:30;2.05;;;1.30;;
45970;SDS011;31681;48.982;8.394;2023-08-01T12:13:59;2.40;;;1.63;;
45970;SDS011;31681;48.982;8.394;2023-08-01T12:16:25;2.67;;;1.35;;
45970;SDS011;31681;48.982;8.394;2023-08-01T12:18:50;1.85;;;1.08;;
45970;SDS011;31681;48.982;8.394;2023-08-01T12:21:16;1.58;;;1.38;;
45970;SDS011;31681;48.982;8.394;2023-08-01T12:23:41;3.08;;;1.42;;
45970;SDS011;31681;48.982;8.394;2023-08-01T12:26:06;2.90;;;1.60;;
45970;SDS011;31681;48.982;8.394;2023-08-01T12:28:32;2.75;;;1.58;;
45970;SDS011;31681;48.982;8.394;2023-08-01T12:30:57;2.97;;;1.40;;
45970;SDS011;31681;48.982;8.394;2023-08-01T12:33:24;2.70;;;1.40;;
45970;SDS011;31681;48.982;8.394;2023-08-01T12:35:49;2.72;;;1.42;;
45970;SDS011;31681;48.982;8.394;2023-08-01T12:38:14;3.67;;;1.42;;
45970;SDS011;31681;48.982;8.394;2023-08-01T12:40:40;2.17;;;1.30;;
45970;SDS011;31681;48.982;8.394;2023-08-01T12:43:05;2.17;;;1.52;;
45970;SDS011;31681;48.982;8.394;2023-08-01T12:45:30;2.53;;;1.40;;
45970;SDS011;31681;48.982;8.394;2023-08-01T12:47:55;3.05;;;1.27;;
45970;SDS011;31681;48.982;8.394;2023-08-01T12:50:21;1.58;;;1.15;;
45970;SDS011;31681;48.982;8.394;2023-08-01T12:52:46;2.50;;;1.35;;
45970;SDS011;31681;48.982;8.394;2023-08-01T12:55:11;2.55;;;1.17;;
45970;SDS011;31681;48.982;8.394;2023-08-01T12:57:37;2.72;;;1.23;;
45970;SDS011;31681;48.982;8.394;2023-08-01T13:00:02;1.65;;;1.23;;
45970;SDS011;31681;48.982;8.394;2023-08-01T13:02:28;2.05;;;1.27;;
45970;SDS011;31681;48.982;8.394;2023-08-01T13:04:53;2.42;;;1.38;;
45970;SDS011;31681;48.982;8.394;2023-08-01T13:07:18;1.65;;;1.27;;
45970;SDS011;31681;48.982;8.394;2023-08-01T13:09:43;3.80;;;1.50;;
45970;SDS011;31681;48.982;8.394;2023-08-01T13:12:09;3.08;;;1.45;;
45970;SDS011;31681;48.982;8.394;2023-08-01T13:14:34;1.58;;;1.33;;
45970;SDS011;31681;48.982;8.394;2023-08-01T13:16:59;2.05;;;1.60;;
45970;SDS011;31681;48.982;8.394;2023-08-01T13:19:25;2.05;;;1.20;;
45970;SDS011;31681;48.982;8.394;2023-08-01T13:21:51;4.68;;;1.77;;
45970;SDS011;31681;48.982;8.394;2023-08-01T13:24:16;2.45;;;1.35;;
45970;SDS011;31681;48.982;8.394;2023-08-01T13:26:42;5.00;;;1.60;;
45970;SDS011;31681;48.982;8.394;2023-08-01T13:29:07;2.17;;;1.25;;
45970;SDS011;31681;48.982;8.394;2023-08-01T13:31:32;2.92;;;1.30;;
45970;SDS011;31681;48.982;8.394;2023-08-01T13:33:57;1.83;;;1.33;;
45970;SDS011;31681;48.982;8.394;2023-08-01T13:36:23;2.05;;;1.15;;
45970;SDS011;31681;48.982;8.394;2023-08-01T13:38:48;2.55;;;1.45;;
45970;SDS011;31681;48.982;8.394;2023-08-01T13:41:14;1.92;;;1.33;;
45970;SDS011;31681;48.982;8.394;2023-08-01T13:43:39;2.75;;;1.58;;
45970;SDS011;31681;48.982;8.394;2023-08-01T13:46:17;2.42;;;1.50;;
45970;SDS011;31681;48.982;8.394;2023-08-01T13:48:44;2.35;;;1.20;;
45970;SDS011;31681;48.982;8.394;2023-08-01T13:51:10;3.47;;;1.50;;
45970;SDS011;31681;48.982;8.394;2023-08-01T13:53:35;3.58;;;1.50;;
45970;SDS011;31681;48.982;8.394;2023-08-01T13:56:06;2.22;;;1.30;;
45970;SDS011;31681;48.982;8.394;2023-08-01T13:58:31;2.03;;;1.25;;
45970;SDS011;31681;48.982;8.394;2023-08-01T14:01:01;2.20;;;1.40;;
45970;SDS011;31681;48.982;8.394;2023-08-01T14:03:26;2.67;;;1.50;;
45970;SDS011;31681;48.982;8.394;2023-08-01T14:05:51;2.58;;;1.40;;
45970;SDS011;31681;48.982;8.394;2023-08-01T14:08:17;3.08;;;1.48;;
45970;SDS011;31681;48.982;8.394;2023-08-01T14:10:42;4.28;;;1.55;;
45970;SDS011;31681;48.982;8.394;2023-08-01T14:13:07;2.08;;;1.15;;
45970;SDS011;31681;48.982;8.394;2023-08-01T14:15:33;2.00;;;1.30;;
45970;SDS011;31681;48.982;8.394;2023-08-01T14:17:58;3.38;;;1.40;;
45970;SDS011;31681;48.982;8.394;2023-08-01T14:20:23;2.47;;;1.20;;
45970;SDS011;31681;48.982;8.394;2023-08-01T14:22:49;3.13;;;1.38;;
45970;SDS011;31681;48.982;8.394;2023-08-01T14:25:14;2.75;;;1.40;;
45970;SDS011;31681;48.982;8.394;2023-08-01T14:27:39;3.67;;;1.58;;
45970;SDS011;31681;48.982;8.394;2023-08-01T14:30:05;2.00;;;1.35;;
45970;SDS011;31681;48.982;8.394;2023-08-01T14:32:31;2.33;;;1.33;;
45970;SDS011;31681;48.982;8.394;2023-08-01T14:34:56;2.05;;;1.27;;
45970;SDS011;31681;48.982;8.394;2023-08-01T14:37:22;4.32;;;1.48;;
45970;SDS011;31681;48.982;8.394;2023-08-01T14:39:49;2.55;;;1.50;;
45970;SDS011;31681;48.982;8.394;2023-08-01T14:42:14;2.40;;;1.40;;
45970;SDS011;31681;48.982;8.394;2023-08-01T14:44:40;1.80;;;1.13;;
45970;SDS011;31681;48.982;8.394;2023-08-01T14:47:05;1.75;;;1.30;;
45970;SDS011;31681;48.982;8.394;2023-08-01T14:49:30;2.25;;;1.30;;
45970;SDS011;31681;48.982;8.394;2023-08-01T14:51:56;2.85;;;1.38;;
45970;SDS011;31681;48.982;8.394;2023-08-01T14:54:21;2.38;;;1.38;;
45970;SDS011;31681;48.982;8.394;2023-08-01T14:56:46;3.05;;;1.25;;
45970;SDS011;31681;48.982;8.394;2023-08-01T14:59:12;2.78;;;1.52;;
45970;SDS011;31681;48.982;8.394;2023-08-01T15:01:37;2.15;;;1.60;;
45970;SDS011;31681;48.982;8.394;2023-08-01T15:04:03;2.22;;;1.10;;
45970;SDS011;31681;48.982;8.394;2023-08-01T15:06:28;1.95;;;1.55;;
45970;SDS011;31681;48.982;8.394;2023-08-01T15:08:53;2.25;;;1.30;;
45970;SDS011;31681;48.982;8.394;2023-08-01T15:11:19;3.00;;;1.42;;
45970;SDS011;31681;48.982;8.394;2023-08-01T15:13:44;2.90;;;1.50;;
45970;SDS011;31681;48.982;8.394;2023-08-01T15:16:09;2.20;;;1.50;;
45970;SDS011;31681;48.982;8.394;2023-08-01T15:18:36;2.50;;;1.40;;
45970;SDS011;31681;48.982;8.394;2023-08-01T15:21:01;4.32;;;1.50;;
45970;SDS011;31681;48.982;8.394;2023-08-01T15:23:27;2.47;;;1.55;;
45970;SDS011;31681;48.982;8.394;2023-08-01T15:25:56;2.53;;;1.30;;
45970;SDS011;31681;48.982;8.394;2023-08-01T15:28:38;2.47;;;1.50;;
45970;SDS011;31681;48.982;8.394;2023-08-01T15:31:04;3.22;;;1.60;;
45970;SDS011;31681;48.982;8.394;2023-08-01T15:33:33;4.57;;;2.22;;
45970;SDS011;31681;48.982;8.394;2023-08-01T15:36:00;4.50;;;1.50;;
45970;SDS011;31681;48.982;8.394;2023-08-01T15:38:25;1.98;;;1.40;;
45970;SDS011;31681;48.982;8.394;2023-08-01T15:40:51;2.58;;;1.63;;
45970;SDS011;31681;48.982;8.394;2023-08-01T15:43:20;2.63;;;1.52;;
45970;SDS011;31681;48.982;8.394;2023-08-01T15:45:46;2.22;;;1.38;;
45970;SDS011;31681;48.982;8.394;2023-08-01T15:48:11;1.90;;;1.40;;
45970;SDS011;31681;48.982;8.394;2023-08-01T15:50:37;3.03;;;1.55;;
45970;SDS011;31681;48.982;8.394;2023-08-01T15:53:02;2.75;;;1.60;;
45970;SDS011;31681;48.982;8.394;2023-08-01T15:55:28;1.40;;;1.20;;
45970;SDS011;31681;48.982;8.394;2023-08-01T15:57:53;2.00;;;1.50;;
45970;SDS011;31681;48.982;8.394;2023-08-01T16:00:19;1.73;;;1.40;;
45970;SDS011;31681;48.982;8.394;2023-08-01T16:02:44;1.80;;;1.50;;
45970;SDS011;31681;48.982;8.394;2023-08-01T16:05:09;4.25;;;1.50;;
45970;SDS011;31681;48.982;8.394;2023-08-01T16:07:35;3.00;;;1.70;;
45970;SDS011;31681;48.982;8.394;2023-08-01T16:10:00;3.40;;;1.83;;
45970;SDS011;31681;48.982;8.394;2023-08-01T16:12:27;3.10;;;1.60;;
45970;SDS011;31681;48.982;8.394;2023-08-01T16:14:53;1.88;;;1.45;;
45970;SDS011;31681;48.982;8.394;2023-08-01T16:17:18;2.25;;;1.40;;
45970;SDS011;31681;48.982;8.394;2023-08-01T16:19:44;2.53;;;1.65;;
45970;SDS011;31681;48.982;8.394;2023-08-01T16:22:09;2.67;;;1.92;;
45970;SDS011;31681;48.982;8.394;2023-08-01T16:24:35;2.40;;;1.58;;
45970;SDS011;31681;48.982;8.394;2023-08-01T16:27:00;2.65;;;1.60;;
45970;SDS011;31681;48.982;8.394;2023-08-01T16:29:28;3.83;;;1.45;;
45970;SDS011;31681;48.982;8.394;2023-08-01T16:31:54;2.65;;;1.80;;
45970;SDS011;31681;48.982;8.394;2023-08-01T16:34:20;2.22;;;1.60;;
45970;SDS011;31681;48.982;8.394;2023-08-01T16:36:45;4.68;;;1.50;;
45970;SDS011;31681;48.982;8.394;2023-08-01T16:39:11;2.03;;;1.55;;
45970;SDS011;31681;48.982;8.394;2023-08-01T16:41:37;4.05;;;1.70;;
45970;SDS011;31681;48.982;8.394;2023-08-01T16:44:02;2.95;;;1.52;;
45970;SDS011;31681;48.982;8.394;2023-08-01T16:46:28;3.50;;;1.40;;
45970;SDS011;31681;48.982;8.394;2023-08-01T16:48:54;3.05;;;1.95;;
45970;SDS011;31681;48.982;8.394;2023-08-01T16:51:20;4.57;;;1.55;;
45970;SDS011;31681;48.982;8.394;2023-08-01T16:53:46;5.15;;;1.50;;
45970;SDS011;31681;48.982;8.394;2023-08-01T16:56:11;4.78;;;1.77;;
45970;SDS011;31681;48.982;8.394;2023-08-01T16:58:37;3.35;;;1.40;;
45970;SDS011;31681;48.982;8.394;2023-08-01T17:01:03;2.22;;;1.60;;
45970;SDS011;31681;48.982;8.394;2023-08-01T17:03:28;2.35;;;1.42;;
45970;SDS011;31681;48.982;8.394;2023-08-01T17:05:56;2.33;;;1.20;;
45970;SDS011;31681;48.982;8.394;2023-08-01T17:08:27;2.72;;;1.40;;
45970;SDS011;31681;48.982;8.394;2023-08-01T17:10:52;6.53;;;2.28;;
45970;SDS011;31681;48.982;8.394;2023-08-01T17:13:18;3.25;;;1.63;;
45970;SDS011;31681;48.982;8.394;2023-08-01T17:15:43;3.30;;;1.23;;
45970;SDS011;31681;48.982;8.394;2023-08-01T17:18:09;3.60;;;1.30;;
45970;SDS011;31681;48.982;8.394;2023-08-01T17:20:38;2.53;;;1.27;;
45970;SDS011;31681;48.982;8.394;2023-08-01T17:23:06;2.50;;;1.45;;
45970;SDS011;31681;48.982;8.394;2023-08-01T17:25:32;2.35;;;1.25;;
45970;SDS011;31681;48.982;8.394;2023-08-01T17:28:07;3.72;;;1.70;;
45970;SDS011;31681;48.982;8.394;2023-08-01T17:31:07;4.57;;;1.63;;
45970;SDS011;31681;48.982;8.394;2023-08-01T17:33:38;2.45;;;1.40;;
45970;SDS011;31681;48.982;8.394;2023-08-01T17:36:03;4.30;;;1.30;;
45970;SDS011;31681;48.982;8.394;2023-08-01T17:38:29;1.60;;;1.27;;
45970;SDS011;31681;48.982;8.394;2023-08-01T17:40:55;3.13;;;1.33;;
45970;SDS011;31681;48.982;8.394;2023-08-01T17:43:30;4.82;;;2.05;;
45970;SDS011;31681;48.982;8.394;2023-08-01T17:45:58;2.22;;;1.33;;
45970;SDS011;31681;48.982;8.394;2023-08-01T17:48:23;4.50;;;1.65;;
45970;SDS011;31681;48.982;8.394;2023-08-01T17:50:48;3.30;;;1.50;;
45970;SDS011;31681;48.982;8.394;2023-08-01T17:53:14;2.67;;;1.50;;
45970;SDS011;31681;48.982;8.394;2023-08-01T17:55:44;4.20;;;1.58;;
45970;SDS011;31681;48.982;8.394;2023-08-01T17:58:10;2.33;;;1.50;;
45970;SDS011;31681;48.982;8.394;2023-08-01T18:00:35;4.07;;;1.58;;
45970;SDS011;31681;48.982;8.394;2023-08-01T18:03:01;5.03;;;1.95;;
45970;SDS011;31681;48.982;8.394;2023-08-01T18:05:26;3.22;;;1.30;;
45970;SDS011;31681;48.982;8.394;2023-08-01T18:07:51;3.47;;;1.20;;
45970;SDS011;31681;48.982;8.394;2023-08-01T18:10:17;4.15;;;1.60;;
45970;SDS011;31681;48.982;8.394;2023-08-01T18:12:44;2.85;;;1.42;;
45970;SDS011;31681;48.982;8.394;2023-08-01T18:15:10;4.47;;;1.65;;
45970;SDS011;31681;48.982;8.394;2023-08-01T18:17:36;6.22;;;2.05;;
45970;SDS011;31681;48.982;8.394;2023-08-01T18:20:02;3.70;;;1.30;;
45970;SDS011;31681;48.982;8.394;2023-08-01T18:22:27;4.15;;;1.58;;
45970;SDS011;31681;48.982;8.394;2023-08-01T18:24:54;5.78;;;1.92;;
45970;SDS011;31681;48.982;8.394;2023-08-01T18:27:19;3.78;;;1.50;;
45970;SDS011;31681;48.982;8.394;2023-08-01T18:29:45;3.85;;;1.60;;
45970;SDS011;31681;48.982;8.394;2023-08-01T18:32:10;3.67;;;1.40;;